Humidity-temperature Sensor

Selected Measurement Type: Relative Humidity

 
Relative Humidity [%]     6 entries per hour
Showing data from 3/11/2016 (00:00:00 Z) to 3/4/2016 (00:01:00 Z)
Previous Next [ Day | 3-Days | 7-Days ]
First Last
Prev [ Day | 3-Days | 7-Days ] Next
First Last

Start Time:     :
End Time:     :     
Time (in GMT) :00 :50 :40 :30 :20 :10
Previous Next [ Day | 3-Days | 7-Days ]
First Last
Prev [ Day | 3-Days | 7-Days ] Next
First Last


123 => good data
MM => data is determined as missing
-- => data not received/configured
Back to Top Back to Top
3/11/2016 00:00 to 23:10 92.78 92.12 92.03 92.12 92.06 89.39
3/10/2016 23:00 to 22:10 88.84 88.50 88.31 87.61 87.58 87.31
3/10/2016 22:00 to 21:10 87.88 88.77 88.75 86.40 87.56 88.03
3/10/2016 21:00 to 20:10 88.66 89.38 88.79 89.02 88.07 86.86
3/10/2016 20:00 to 19:10 87.05 86.69 85.13 83.60 82.93 82.23
3/10/2016 19:00 to 18:10 82.97 84.28 84.11 84.15 84.66 85.62
3/10/2016 18:00 to 17:10 86.17 87.88 87.99 90.00 91.23 90.17
3/10/2016 17:00 to 16:10 85.42 85.70 85.47 86.40 87.31 87.31
3/10/2016 16:00 to 15:10 88.60 89.05 89.02 88.58 88.84 88.84
3/10/2016 15:00 to 14:10 89.09 88.35 88.39 88.88 88.48 88.16
3/10/2016 14:00 to 13:10 88.07 88.22 88.07 87.63 87.71 88.47
3/10/2016 13:00 to 12:10 88.75 88.45 88.16 87.82 88.03 87.67
3/10/2016 12:00 to 11:10 87.41 87.25 87.18 87.29 87.16 86.51
3/10/2016 11:00 to 10:10 86.06 85.57 86.34 85.98 85.91 85.59
3/10/2016 10:00 to 9:10 84.77 83.71 85.81 86.53 86.36 85.59
3/10/2016 09:00 to 8:10 86.84 87.58 88.22 86.93 87.25 86.44
3/10/2016 08:00 to 7:10 85.13 86.25 87.06 86.65 86.78 88.30
3/10/2016 07:00 to 6:10 86.38 87.18 87.65 88.67 87.78 87.88
3/10/2016 06:00 to 5:10 89.11 89.05 90.36 90.85 90.91 90.19
3/10/2016 05:00 to 4:10 91.14 91.78 93.01 94.70 95.38 95.25
3/10/2016 04:00 to 3:10 94.83 94.68 95.57 96.95 97.65 98.41
3/10/2016 03:00 to 2:10 98.43 98.73 97.63 98.43 98.81 99.53
3/10/2016 02:00 to 1:10 99.60 99.89 -- 99.26 97.77 95.66
3/10/2016 01:00 to 0:10 94.91 94.75 95.19 93.73 92.86 92.31
3/10/2016 00:00 to 23:10 92.80 92.78 92.96 91.25 91.19 90.72
3/9/2016 23:00 to 22:10 90.19 90.32 90.78 90.06 90.27 92.24
3/9/2016 22:00 to 21:10 93.54 94.47 93.28 90.59 91.12 90.00
3/9/2016 21:00 to 20:10 89.77 89.81 90.44 90.40 90.80 90.80
3/9/2016 20:00 to 19:10 90.57 90.25 91.00 91.44 92.60 93.37
3/9/2016 19:00 to 18:10 92.71 92.44 92.92 94.30 96.35 97.20
3/9/2016 18:00 to 17:10 98.64 97.25 91.04 91.06 90.27 90.11
3/9/2016 17:00 to 16:10 90.87 90.66 91.33 90.68 91.78 91.61
3/9/2016 16:00 to 15:10 92.46 93.11 93.81 92.12 92.80 95.04
3/9/2016 15:00 to 14:10 95.10 95.27 96.21 97.77 97.71 98.22
3/9/2016 14:00 to 13:10 97.61 97.86 99.07 98.37 98.26 97.77
3/9/2016 13:00 to 12:10 93.75 93.16 94.53 95.13 94.60 95.02
3/9/2016 12:00 to 11:10 97.75 98.16 96.19 98.07 98.43 98.32
3/9/2016 11:00 to 10:10 97.63 95.38 94.87 93.94 92.99 93.96
3/9/2016 10:00 to 9:10 94.41 95.42 92.65 92.27 91.95 92.96
3/9/2016 09:00 to 8:10 91.65 91.61 93.37 92.54 92.75 94.41
3/9/2016 08:00 to 7:10 94.15 92.48 92.39 92.56 89.98 90.76
3/9/2016 07:00 to 6:10 91.19 90.83 90.95 89.45 89.77 89.81
3/9/2016 06:00 to 5:10 89.41 89.26 89.70 88.98 89.64 89.60
3/9/2016 05:00 to 4:10 88.77 88.73 88.01 88.62 89.36 89.00
3/9/2016 04:00 to 3:10 88.96 88.92 88.37 88.01 87.56 88.16
3/9/2016 03:00 to 2:10 87.10 86.27 86.82 86.97 87.59 86.95
3/9/2016 02:00 to 1:10 86.44 85.91 86.51 84.90 85.98 86.40
3/9/2016 01:00 to 0:10 86.31 86.25 85.62 86.48 85.85 86.57
3/9/2016 00:00 to 23:10 86.21 86.82 86.57 86.46 86.70 86.93
3/8/2016 23:00 to 22:10 87.52 85.85 86.50 87.29 87.05 86.76
3/8/2016 22:00 to 21:10 88.26 87.75 87.48 87.67 88.14 87.08
3/8/2016 21:00 to 20:10 87.27 87.75 86.65 88.39 88.24 87.84
3/8/2016 20:00 to 19:10 87.77 86.55 87.01 87.42 87.88 86.69
3/8/2016 19:00 to 18:10 86.23 86.12 86.84 85.70 85.74 86.70
3/8/2016 18:00 to 17:10 86.82 86.55 84.89 84.54 84.73 84.30
3/8/2016 17:00 to 16:10 84.66 83.88 85.04 85.76 87.58 85.32
3/8/2016 16:00 to 15:10 85.76 87.20 87.10 87.01 86.04 87.84
3/8/2016 15:00 to 14:10 87.54 86.99 86.55 89.15 89.26 89.02
3/8/2016 14:00 to 13:10 89.24 89.79 89.87 89.77 90.42 90.21
3/8/2016 13:00 to 12:10 89.49 90.40 89.13 89.39 90.11 89.70
3/8/2016 12:00 to 11:10 89.89 89.92 89.20 88.60 87.52 89.75
3/8/2016 11:00 to 10:10 89.51 90.25 88.54 88.39 87.50 87.80
3/8/2016 10:00 to 9:10 88.41 89.30 89.68 90.21 89.26 87.95
3/8/2016 09:00 to 8:10 88.47 88.96 88.75 89.51 88.73 90.25
3/8/2016 08:00 to 7:10 89.60 89.26 90.53 90.11 89.96 90.59
3/8/2016 07:00 to 6:10 89.49 89.05 88.33 89.26 89.34 89.00
3/8/2016 06:00 to 5:10 89.02 89.94 89.49 91.65 92.56 94.13
3/8/2016 05:00 to 4:10 95.08 95.02 94.21 95.46 98.15 94.30
3/8/2016 04:00 to 3:10 87.92 89.36 90.42 90.15 89.77 89.11
3/8/2016 03:00 to 2:10 88.30 87.78 88.14 88.92 88.73 86.48
3/8/2016 02:00 to 1:10 85.11 85.17 85.23 84.79 85.06 85.78
3/8/2016 01:00 to 0:10 86.19 85.61 85.66 87.56 87.84 88.16
3/8/2016 00:00 to 23:10 88.48 88.26 87.90 87.65 88.07 87.71
3/7/2016 23:00 to 22:10 86.87 86.02 85.95 86.04 86.21 85.23
3/7/2016 22:00 to 21:10 84.49 83.67 84.98 85.00 84.54 85.15
3/7/2016 21:00 to 20:10 85.38 85.49 87.01 88.84 88.03 88.62
3/7/2016 20:00 to 19:10 87.86 88.45 88.39 88.50 88.94 89.41
3/7/2016 19:00 to 18:10 89.20 88.69 89.66 89.70 89.30 88.92
3/7/2016 18:00 to 17:10 88.54 89.30 90.11 90.47 91.52 93.50
3/7/2016 17:00 to 16:10 95.40 95.40 92.54 91.63 89.98 90.06
3/7/2016 16:00 to 15:10 89.34 89.70 90.38 91.12 90.11 89.53
3/7/2016 15:00 to 14:10 89.68 91.12 90.19 89.85 90.00 90.13
3/7/2016 14:00 to 13:10 90.66 89.98 89.98 90.06 90.11 89.11
3/7/2016 13:00 to 12:10 89.00 88.75 88.56 88.54 89.39 89.91
3/7/2016 12:00 to 11:10 90.06 89.91 90.68 91.69 92.18 91.55
3/7/2016 11:00 to 10:10 91.86 91.31 91.52 92.42 92.75 91.50
3/7/2016 10:00 to 9:10 91.02 90.51 90.66 90.66 90.80 90.00
3/7/2016 09:00 to 8:10 90.97 91.21 91.59 91.10 90.59 90.97
3/7/2016 08:00 to 7:10 90.38 90.42 89.77 89.43 89.83 90.44
3/7/2016 07:00 to 6:10 90.66 90.19 89.87 89.98 90.17 90.08
3/7/2016 06:00 to 5:10 90.32 90.42 90.06 90.13 89.83 89.36
3/7/2016 05:00 to 4:10 88.69 90.00 89.41 89.58 90.04 88.71
3/7/2016 04:00 to 3:10 88.58 87.78 87.95 88.56 87.48 87.16
3/7/2016 03:00 to 2:10 86.78 86.78 87.63 87.33 88.01 87.73
3/7/2016 02:00 to 1:10 87.48 87.48 87.63 87.20 87.18 86.27
3/7/2016 01:00 to 0:10 86.61 85.55 85.55 86.06 86.40 86.21
3/7/2016 00:00 to 23:10 87.44 86.61 87.06 87.80 87.95 87.84
3/6/2016 23:00 to 22:10 87.82 89.45 88.98 88.09 88.31 88.60
3/6/2016 22:00 to 21:10 88.12 88.66 88.96 89.00 89.47 89.94
3/6/2016 21:00 to 20:10 90.21 89.66 88.77 88.45 88.77 88.37
3/6/2016 20:00 to 19:10 88.54 89.75 90.15 89.66 88.98 88.47
3/6/2016 19:00 to 18:10 88.39 88.05 89.07 89.17 88.66 87.95
3/6/2016 18:00 to 17:10 87.54 88.12 88.03 88.67 88.09 88.35
3/6/2016 17:00 to 16:10 87.99 88.62 88.73 90.15 90.80 90.95
3/6/2016 16:00 to 15:10 89.98 90.44 90.66 90.32 92.01 92.24
3/6/2016 15:00 to 14:10 91.44 91.27 91.10 90.99 90.91 91.69
3/6/2016 14:00 to 13:10 91.69 91.93 90.61 92.48 91.63 91.80
3/6/2016 13:00 to 12:10 92.25 92.58 92.82 93.13 92.99 92.52
3/6/2016 12:00 to 11:10 93.20 93.11 93.83 94.45 94.43 94.91
3/6/2016 11:00 to 10:10 94.21 94.39 93.79 93.41 93.24 92.92
3/6/2016 10:00 to 9:10 93.09 93.31 93.41 93.30 94.03 94.15
3/6/2016 09:00 to 8:10 93.41 93.22 93.33 92.94 92.54 92.33
3/6/2016 08:00 to 7:10 92.82 92.22 91.72 91.31 91.99 92.56
3/6/2016 07:00 to 6:10 91.99 92.08 92.92 92.58 92.39 92.06
3/6/2016 06:00 to 5:10 91.33 90.95 90.87 90.36 90.57 91.17
3/6/2016 05:00 to 4:10 90.51 90.06 89.66 88.92 88.16 88.03
3/6/2016 04:00 to 3:10 88.56 90.08 89.30 87.18 89.03 88.66
3/6/2016 03:00 to 2:10 87.75 87.63 86.69 85.91 85.51 86.67
3/6/2016 02:00 to 1:10 87.39 87.37 86.70 86.78 86.51 86.36
3/6/2016 01:00 to 0:10 84.96 85.74 85.93 85.62 86.48 86.34
3/6/2016 00:00 to 23:10 86.25 88.54 88.03 87.25 86.04 86.31
3/5/2016 23:00 to 22:10 86.61 87.31 86.33 85.76 85.76 84.17
3/5/2016 22:00 to 21:10 84.41 86.38 88.94 88.75 89.15 88.73
3/5/2016 21:00 to 20:10 88.73 88.56 88.45 88.73 87.94 87.69
3/5/2016 20:00 to 19:10 88.12 87.67 87.10 86.53 87.61 86.82
3/5/2016 19:00 to 18:10 86.44 88.98 87.31 86.89 87.01 85.76
3/5/2016 18:00 to 17:10 88.07 89.11 89.30 89.81 89.96 91.34
3/5/2016 17:00 to 16:10 90.11 87.01 86.12 85.85 86.70 86.48
3/5/2016 16:00 to 15:10 87.54 87.75 87.35 86.53 86.00 87.25
3/5/2016 15:00 to 14:10 86.25 87.03 89.47 89.11 88.01 87.50
3/5/2016 14:00 to 13:10 87.33 86.44 85.80 87.33 88.69 89.49
3/5/2016 13:00 to 12:10 90.21 90.38 91.08 91.57 91.52 91.84
3/5/2016 12:00 to 11:10 91.67 91.14 90.95 90.80 89.68 90.81
3/5/2016 11:00 to 10:10 91.76 91.80 91.42 86.74 86.99 87.31
3/5/2016 10:00 to 9:10 86.38 85.89 85.47 85.66 85.26 85.25
3/5/2016 09:00 to 8:10 84.87 85.36 85.08 86.63 87.59 87.80
3/5/2016 08:00 to 7:10 87.29 87.94 87.29 87.37 88.54 88.69
3/5/2016 07:00 to 6:10 88.24 87.58 87.78 88.05 88.07 88.24
3/5/2016 06:00 to 5:10 86.82 86.48 86.19 85.57 85.21 86.63
3/5/2016 05:00 to 4:10 86.55 86.84 87.10 86.69 87.27 86.78
3/5/2016 04:00 to 3:10 85.23 85.34 85.04 85.11 85.83 85.74
3/5/2016 03:00 to 2:10 87.84 87.42 87.06 87.33 87.14 86.84
3/5/2016 02:00 to 1:10 86.31 85.28 84.72 85.38 84.39 85.83
3/5/2016 01:00 to 0:10 85.28 84.73 84.77 85.85 86.04 86.34
3/5/2016 00:00 to 23:10 85.76 84.98 84.73 84.36 85.66 85.09
3/4/2016 23:00 to 22:10 84.22 83.81 83.22 84.24 83.84 84.56
3/4/2016 22:00 to 21:10 83.90 84.43 83.75 83.43 83.79 85.44
3/4/2016 21:00 to 20:10 85.25 86.12 87.58 86.38 86.95 86.19
3/4/2016 20:00 to 19:10 87.06 86.61 86.34 86.00 84.94 85.17
3/4/2016 19:00 to 18:10 85.30 85.40 85.15 83.47 85.59 87.06
3/4/2016 18:00 to 17:10 87.52 87.29 88.12 89.00 88.37 87.97
3/4/2016 17:00 to 16:10 88.75 88.71 88.09 88.05 87.82 88.71
3/4/2016 16:00 to 15:10 88.96 89.03 89.96 89.91 89.85 89.73
3/4/2016 15:00 to 14:10 90.42 90.80 89.73 89.38 89.62 90.15
3/4/2016 14:00 to 13:10 89.24 90.32 89.83 89.66 90.00 89.79
3/4/2016 13:00 to 12:10 89.83 89.89 89.47 89.11 89.26 88.98
3/4/2016 12:00 to 11:10 89.02 88.77 88.86 88.52 88.86 88.31
3/4/2016 11:00 to 10:10 88.67 87.65 87.27 88.20 88.16 88.05
3/4/2016 10:00 to 9:10 88.28 87.42 87.18 87.08 86.84 86.84
3/4/2016 09:00 to 8:10 88.24 88.62 88.54 88.48 89.03 89.45
3/4/2016 08:00 to 7:10 89.68 90.06 89.98 88.86 88.54 88.58
3/4/2016 07:00 to 6:10 88.45 88.33 88.64 88.03 88.22 87.78
3/4/2016 06:00 to 5:10 87.63 86.42 85.66 85.23 86.17 86.23
3/4/2016 05:00 to 4:10 86.93 87.52 88.31 87.90 87.65 86.97
3/4/2016 04:00 to 3:10 86.57 85.85 85.78 86.59 85.95 87.48
3/4/2016 03:00 to 2:10 87.35 88.11 88.43 88.67 88.62 89.09
3/4/2016 02:00 to 1:10 88.75 89.32 88.41 88.56 89.49 90.13
3/4/2016 01:00 to 0:10 89.41 88.67 88.52 88.47 87.67 87.27